sensor_id;sensor_type;location;lat;lon;timestamp;temperature;humidity
12853;DHT22;6495;51.808;7.478;2022-12-29T00:00:14;9.80;99.90
12853;DHT22;6495;51.808;7.478;2022-12-29T00:03:01;9.80;99.90
12853;DHT22;6495;51.808;7.478;2022-12-29T00:05:54;9.90;99.90
12853;DHT22;6495;51.808;7.478;2022-12-29T00:08:41;9.90;99.90
12853;DHT22;6495;51.808;7.478;2022-12-29T00:11:29;9.90;99.90
12853;DHT22;6495;51.808;7.478;2022-12-29T00:14:16;9.90;99.90
12853;DHT22;6495;51.808;7.478;2022-12-29T00:17:21;9.90;99.90
12853;DHT22;6495;51.808;7.478;2022-12-29T00:20:08;9.90;99.90
12853;DHT22;6495;51.808;7.478;2022-12-29T00:23:13;9.90;99.90
12853;DHT22;6495;51.808;7.478;2022-12-29T00:26:17;10.00;99.90
12853;DHT22;6495;51.808;7.478;2022-12-29T00:29:23;10.00;99.90
12853;DHT22;6495;51.808;7.478;2022-12-29T00:32:28;10.00;99.90
12853;DHT22;6495;51.808;7.478;2022-12-29T00:35:38;10.00;99.90
12853;DHT22;6495;51.808;7.478;2022-12-29T00:38:29;10.00;99.90
12853;DHT22;6495;51.808;7.478;2022-12-29T00:41:36;10.00;99.90
12853;DHT22;6495;51.808;7.478;2022-12-29T00:44:42;10.00;99.90
12853;DHT22;6495;51.808;7.478;2022-12-29T00:47:28;10.10;99.90
12853;DHT22;6495;51.808;7.478;2022-12-29T00:50:15;10.10;99.90
12853;DHT22;6495;51.808;7.478;2022-12-29T00:53:02;10.10;99.90
12853;DHT22;6495;51.808;7.478;2022-12-29T00:55:49;10.10;99.90
12853;DHT22;6495;51.808;7.478;2022-12-29T00:58:36;10.10;99.90
12853;DHT22;6495;51.808;7.478;2022-12-29T01:01:24;10.10;99.90
12853;DHT22;6495;51.808;7.478;2022-12-29T01:04:11;10.20;99.90
12853;DHT22;6495;51.808;7.478;2022-12-29T01:06:58;10.10;99.90
12853;DHT22;6495;51.808;7.478;2022-12-29T01:09:45;10.10;99.90
12853;DHT22;6495;51.808;7.478;2022-12-29T01:12:49;10.10;99.90
12853;DHT22;6495;51.808;7.478;2022-12-29T01:15:36;10.10;99.90
12853;DHT22;6495;51.808;7.478;2022-12-29T01:18:25;10.10;99.90
12853;DHT22;6495;51.808;7.478;2022-12-29T01:21:12;10.10;99.90
12853;DHT22;6495;51.808;7.478;2022-12-29T01:23:59;10.10;99.90
12853;DHT22;6495;51.808;7.478;2022-12-29T01:26:45;10.20;99.90
12853;DHT22;6495;51.808;7.478;2022-12-29T01:29:32;10.20;99.90
12853;DHT22;6495;51.808;7.478;2022-12-29T01:32:18;10.20;99.90
12853;DHT22;6495;51.808;7.478;2022-12-29T01:35:07;10.20;99.90
12853;DHT22;6495;51.808;7.478;2022-12-29T01:37:54;10.20;99.90
12853;DHT22;6495;51.808;7.478;2022-12-29T01:40:44;10.20;99.90
12853;DHT22;6495;51.808;7.478;2022-12-29T01:43:40;10.20;99.90
12853;DHT22;6495;51.808;7.478;2022-12-29T01:46:31;10.20;99.90
12853;DHT22;6495;51.808;7.478;2022-12-29T01:49:23;10.20;99.90
12853;DHT22;6495;51.808;7.478;2022-12-29T01:52:15;10.20;99.90
12853;DHT22;6495;51.808;7.478;2022-12-29T01:55:05;10.20;99.90
12853;DHT22;6495;51.808;7.478;2022-12-29T01:57:56;10.20;99.90
12853;DHT22;6495;51.808;7.478;2022-12-29T02:00:47;10.20;99.90
12853;DHT22;6495;51.808;7.478;2022-12-29T02:03:35;10.20;99.90
12853;DHT22;6495;51.808;7.478;2022-12-29T02:06:25;10.20;99.90
12853;DHT22;6495;51.808;7.478;2022-12-29T02:09:16;10.20;99.90
12853;DHT22;6495;51.808;7.478;2022-12-29T02:12:03;10.30;99.90
12853;DHT22;6495;51.808;7.478;2022-12-29T02:14:55;10.30;99.90
12853;DHT22;6495;51.808;7.478;2022-12-29T02:18:07;10.30;99.90
12853;DHT22;6495;51.808;7.478;2022-12-29T02:21:28;10.30;99.90
12853;DHT22;6495;51.808;7.478;2022-12-29T02:24:58;10.30;99.90
12853;DHT22;6495;51.808;7.478;2022-12-29T02:28:30;10.30;99.90
12853;DHT22;6495;51.808;7.478;2022-12-29T02:31:44;10.40;99.90
12853;DHT22;6495;51.808;7.478;2022-12-29T02:34:45;10.40;99.90
12853;DHT22;6495;51.808;7.478;2022-12-29T02:37:43;10.40;99.90
12853;DHT22;6495;51.808;7.478;2022-12-29T02:40:41;10.40;99.90
12853;DHT22;6495;51.808;7.478;2022-12-29T02:43:37;10.40;99.90
12853;DHT22;6495;51.808;7.478;2022-12-29T02:46:34;10.40;99.90
12853;DHT22;6495;51.808;7.478;2022-12-29T02:49:31;10.40;99.90
12853;DHT22;6495;51.808;7.478;2022-12-29T02:52:27;10.50;99.90
12853;DHT22;6495;51.808;7.478;2022-12-29T02:55:18;10.50;99.90
12853;DHT22;6495;51.808;7.478;2022-12-29T02:58:17;10.50;99.90
12853;DHT22;6495;51.808;7.478;2022-12-29T03:01:21;10.60;99.90
12853;DHT22;6495;51.808;7.478;2022-12-29T03:04:23;10.60;99.90
12853;DHT22;6495;51.808;7.478;2022-12-29T03:07:24;10.60;99.90
12853;DHT22;6495;51.808;7.478;2022-12-29T03:10:29;10.60;99.90
12853;DHT22;6495;51.808;7.478;2022-12-29T03:13:25;10.70;99.90
12853;DHT22;6495;51.808;7.478;2022-12-29T03:16:39;10.70;99.90
12853;DHT22;6495;51.808;7.478;2022-12-29T03:19:35;10.70;99.90
12853;DHT22;6495;51.808;7.478;2022-12-29T03:22:29;10.80;99.90
12853;DHT22;6495;51.808;7.478;2022-12-29T03:25:22;10.80;99.90
12853;DHT22;6495;51.808;7.478;2022-12-29T03:28:15;10.80;99.90
12853;DHT22;6495;51.808;7.478;2022-12-29T03:31:08;10.80;99.90
12853;DHT22;6495;51.808;7.478;2022-12-29T03:33:57;10.80;99.90
12853;DHT22;6495;51.808;7.478;2022-12-29T03:36:49;10.90;99.90
12853;DHT22;6495;51.808;7.478;2022-12-29T03:39:40;10.90;99.90
12853;DHT22;6495;51.808;7.478;2022-12-29T03:42:29;10.90;99.90
12853;DHT22;6495;51.808;7.478;2022-12-29T03:45:19;10.90;99.90
12853;DHT22;6495;51.808;7.478;2022-12-29T03:48:06;10.90;99.90
12853;DHT22;6495;51.808;7.478;2022-12-29T03:50:53;11.00;99.90
12853;DHT22;6495;51.808;7.478;2022-12-29T03:53:41;10.90;99.90
12853;DHT22;6495;51.808;7.478;2022-12-29T03:56:27;11.00;99.90
12853;DHT22;6495;51.808;7.478;2022-12-29T03:59:14;11.00;99.90
12853;DHT22;6495;51.808;7.478;2022-12-29T04:02:02;11.00;99.90
12853;DHT22;6495;51.808;7.478;2022-12-29T04:04:49;11.00;99.90
12853;DHT22;6495;51.808;7.478;2022-12-29T04:07:36;11.00;99.90
12853;DHT22;6495;51.808;7.478;2022-12-29T04:10:23;10.90;99.90
12853;DHT22;6495;51.808;7.478;2022-12-29T04:13:10;10.90;99.90
12853;DHT22;6495;51.808;7.478;2022-12-29T04:15:56;10.90;99.90
12853;DHT22;6495;51.808;7.478;2022-12-29T04:18:43;10.90;99.90
12853;DHT22;6495;51.808;7.478;2022-12-29T04:21:30;10.80;99.90
12853;DHT22;6495;51.808;7.478;2022-12-29T04:24:17;10.80;99.90
12853;DHT22;6495;51.808;7.478;2022-12-29T04:27:06;10.80;99.90
12853;DHT22;6495;51.808;7.478;2022-12-29T04:29:52;10.80;99.90
12853;DHT22;6495;51.808;7.478;2022-12-29T04:32:39;10.80;99.90
12853;DHT22;6495;51.808;7.478;2022-12-29T04:35:25;10.80;99.90
12853;DHT22;6495;51.808;7.478;2022-12-29T04:38:12;10.80;99.90
12853;DHT22;6495;51.808;7.478;2022-12-29T04:40:59;10.80;99.90
12853;DHT22;6495;51.808;7.478;2022-12-29T04:43:48;10.70;99.90
12853;DHT22;6495;51.808;7.478;2022-12-29T04:46:35;10.70;99.90
12853;DHT22;6495;51.808;7.478;2022-12-29T04:49:22;10.70;99.90
12853;DHT22;6495;51.808;7.478;2022-12-29T04:52:08;10.70;99.90
12853;DHT22;6495;51.808;7.478;2022-12-29T04:54:55;10.60;99.90
12853;DHT22;6495;51.808;7.478;2022-12-29T04:57:42;10.60;99.90
12853;DHT22;6495;51.808;7.478;2022-12-29T05:00:30;10.60;99.90
12853;DHT22;6495;51.808;7.478;2022-12-29T05:03:18;10.60;99.90
12853;DHT22;6495;51.808;7.478;2022-12-29T05:06:05;10.50;99.90
12853;DHT22;6495;51.808;7.478;2022-12-29T05:08:53;10.50;99.90
12853;DHT22;6495;51.808;7.478;2022-12-29T05:11:40;10.50;99.90
12853;DHT22;6495;51.808;7.478;2022-12-29T05:14:26;10.50;99.90
12853;DHT22;6495;51.808;7.478;2022-12-29T05:17:15;10.50;99.90
12853;DHT22;6495;51.808;7.478;2022-12-29T05:20:03;10.50;99.90
12853;DHT22;6495;51.808;7.478;2022-12-29T05:22:51;10.50;99.90
12853;DHT22;6495;51.808;7.478;2022-12-29T05:25:38;10.40;99.90
12853;DHT22;6495;51.808;7.478;2022-12-29T05:28:25;10.40;99.90
12853;DHT22;6495;51.808;7.478;2022-12-29T05:31:11;10.30;99.90
12853;DHT22;6495;51.808;7.478;2022-12-29T05:33:59;10.30;99.90
12853;DHT22;6495;51.808;7.478;2022-12-29T05:36:46;10.30;99.90
12853;DHT22;6495;51.808;7.478;2022-12-29T05:39:33;10.30;99.90
12853;DHT22;6495;51.808;7.478;2022-12-29T05:42:19;10.20;99.90
12853;DHT22;6495;51.808;7.478;2022-12-29T05:45:08;10.20;99.90
12853;DHT22;6495;51.808;7.478;2022-12-29T05:47:55;10.20;99.90
12853;DHT22;6495;51.808;7.478;2022-12-29T05:50:42;10.10;99.90
12853;DHT22;6495;51.808;7.478;2022-12-29T05:53:33;10.10;99.90
12853;DHT22;6495;51.808;7.478;2022-12-29T05:56:20;10.10;99.90
12853;DHT22;6495;51.808;7.478;2022-12-29T05:59:06;10.10;99.90
12853;DHT22;6495;51.808;7.478;2022-12-29T06:01:53;10.10;99.90
12853;DHT22;6495;51.808;7.478;2022-12-29T06:04:40;10.10;99.90
12853;DHT22;6495;51.808;7.478;2022-12-29T06:07:28;10.00;99.90
12853;DHT22;6495;51.808;7.478;2022-12-29T06:10:15;10.10;99.90
12853;DHT22;6495;51.808;7.478;2022-12-29T06:13:02;10.10;99.90
12853;DHT22;6495;51.808;7.478;2022-12-29T06:15:51;10.10;99.90
12853;DHT22;6495;51.808;7.478;2022-12-29T06:18:37;10.10;99.90
12853;DHT22;6495;51.808;7.478;2022-12-29T06:21:24;10.10;99.90
12853;DHT22;6495;51.808;7.478;2022-12-29T06:24:12;10.10;99.90
12853;DHT22;6495;51.808;7.478;2022-12-29T06:26:59;10.10;99.90
12853;DHT22;6495;51.808;7.478;2022-12-29T06:29:46;10.10;99.90
12853;DHT22;6495;51.808;7.478;2022-12-29T06:32:33;10.10;99.90
12853;DHT22;6495;51.808;7.478;2022-12-29T06:35:19;10.10;99.90
12853;DHT22;6495;51.808;7.478;2022-12-29T06:38:07;10.10;99.90
12853;DHT22;6495;51.808;7.478;2022-12-29T06:40:55;10.00;99.90
12853;DHT22;6495;51.808;7.478;2022-12-29T06:43:42;10.10;99.90
12853;DHT22;6495;51.808;7.478;2022-12-29T06:46:29;10.00;99.90
12853;DHT22;6495;51.808;7.478;2022-12-29T06:49:16;10.00;99.90
12853;DHT22;6495;51.808;7.478;2022-12-29T06:52:03;10.00;99.90
12853;DHT22;6495;51.808;7.478;2022-12-29T06:54:57;10.00;99.90
12853;DHT22;6495;51.808;7.478;2022-12-29T06:57:45;10.00;99.90
12853;DHT22;6495;51.808;7.478;2022-12-29T07:00:31;10.00;99.90
12853;DHT22;6495;51.808;7.478;2022-12-29T07:03:18;10.00;99.90
12853;DHT22;6495;51.808;7.478;2022-12-29T07:06:05;10.00;99.90
12853;DHT22;6495;51.808;7.478;2022-12-29T07:08:52;10.00;99.90
12853;DHT22;6495;51.808;7.478;2022-12-29T07:11:40;10.00;99.90
12853;DHT22;6495;51.808;7.478;2022-12-29T07:14:28;10.00;99.90
12853;DHT22;6495;51.808;7.478;2022-12-29T07:17:15;10.00;99.90
12853;DHT22;6495;51.808;7.478;2022-12-29T07:20:01;10.00;99.90
12853;DHT22;6495;51.808;7.478;2022-12-29T07:22:48;10.00;99.90
12853;DHT22;6495;51.808;7.478;2022-12-29T07:25:34;10.00;99.90
12853;DHT22;6495;51.808;7.478;2022-12-29T07:28:22;10.00;99.90
12853;DHT22;6495;51.808;7.478;2022-12-29T07:31:14;10.00;99.90
12853;DHT22;6495;51.808;7.478;2022-12-29T07:34:02;10.00;99.90
12853;DHT22;6495;51.808;7.478;2022-12-29T07:36:48;10.00;99.90
12853;DHT22;6495;51.808;7.478;2022-12-29T07:39:35;10.00;99.90
12853;DHT22;6495;51.808;7.478;2022-12-29T07:42:22;10.00;99.90
12853;DHT22;6495;51.808;7.478;2022-12-29T07:45:09;10.00;99.90
12853;DHT22;6495;51.808;7.478;2022-12-29T07:47:57;10.00;99.90
12853;DHT22;6495;51.808;7.478;2022-12-29T07:50:44;10.00;99.90
12853;DHT22;6495;51.808;7.478;2022-12-29T07:53:30;10.00;99.90
12853;DHT22;6495;51.808;7.478;2022-12-29T07:56:17;10.10;99.90
12853;DHT22;6495;51.808;7.478;2022-12-29T07:59:04;10.10;99.90
12853;DHT22;6495;51.808;7.478;2022-12-29T08:01:51;10.10;99.90
12853;DHT22;6495;51.808;7.478;2022-12-29T08:04:39;10.10;99.90
12853;DHT22;6495;51.808;7.478;2022-12-29T08:07:25;10.10;99.90
12853;DHT22;6495;51.808;7.478;2022-12-29T08:10:13;10.10;99.90
12853;DHT22;6495;51.808;7.478;2022-12-29T08:13:01;10.10;99.90
12853;DHT22;6495;51.808;7.478;2022-12-29T08:15:48;10.10;99.90
12853;DHT22;6495;51.808;7.478;2022-12-29T08:18:34;10.10;99.90
12853;DHT22;6495;51.808;7.478;2022-12-29T08:21:22;10.10;99.90
12853;DHT22;6495;51.808;7.478;2022-12-29T08:24:09;10.10;99.90
12853;DHT22;6495;51.808;7.478;2022-12-29T08:26:56;10.10;99.90
12853;DHT22;6495;51.808;7.478;2022-12-29T08:29:48;10.10;99.90
12853;DHT22;6495;51.808;7.478;2022-12-29T08:32:35;10.10;99.90
12853;DHT22;6495;51.808;7.478;2022-12-29T08:35:22;10.10;99.90
12853;DHT22;6495;51.808;7.478;2022-12-29T08:38:17;10.20;99.90
12853;DHT22;6495;51.808;7.478;2022-12-29T08:41:04;10.20;99.90
12853;DHT22;6495;51.808;7.478;2022-12-29T08:43:51;10.20;99.90
12853;DHT22;6495;51.808;7.478;2022-12-29T08:46:38;10.20;99.90
12853;DHT22;6495;51.808;7.478;2022-12-29T08:49:25;10.20;99.90
12853;DHT22;6495;51.808;7.478;2022-12-29T08:52:12;10.20;99.90
12853;DHT22;6495;51.808;7.478;2022-12-29T08:55:00;10.20;99.90
12853;DHT22;6495;51.808;7.478;2022-12-29T08:57:47;10.20;99.90
12853;DHT22;6495;51.808;7.478;2022-12-29T09:00:33;10.20;99.90
12853;DHT22;6495;51.808;7.478;2022-12-29T09:03:21;10.20;99.90
12853;DHT22;6495;51.808;7.478;2022-12-29T09:06:29;10.20;99.90
12853;DHT22;6495;51.808;7.478;2022-12-29T09:09:22;10.20;99.90
12853;DHT22;6495;51.808;7.478;2022-12-29T09:12:10;10.30;99.90
12853;DHT22;6495;51.808;7.478;2022-12-29T09:14:57;10.30;99.90
12853;DHT22;6495;51.808;7.478;2022-12-29T09:17:44;10.30;99.90
12853;DHT22;6495;51.808;7.478;2022-12-29T09:20:31;10.30;99.90
12853;DHT22;6495;51.808;7.478;2022-12-29T09:23:18;10.30;99.90
12853;DHT22;6495;51.808;7.478;2022-12-29T09:26:05;10.30;99.90
12853;DHT22;6495;51.808;7.478;2022-12-29T09:28:53;10.30;99.90
12853;DHT22;6495;51.808;7.478;2022-12-29T09:31:40;10.30;99.90
12853;DHT22;6495;51.808;7.478;2022-12-29T09:34:26;10.30;99.90
12853;DHT22;6495;51.808;7.478;2022-12-29T09:37:14;10.30;99.90
12853;DHT22;6495;51.808;7.478;2022-12-29T09:40:00;10.40;99.90
12853;DHT22;6495;51.808;7.478;2022-12-29T09:42:58;10.40;99.90
12853;DHT22;6495;51.808;7.478;2022-12-29T09:46:13;10.40;99.90
12853;DHT22;6495;51.808;7.478;2022-12-29T09:49:18;10.50;99.90
12853;DHT22;6495;51.808;7.478;2022-12-29T09:52:14;10.50;99.90
12853;DHT22;6495;51.808;7.478;2022-12-29T09:55:05;10.60;99.90
12853;DHT22;6495;51.808;7.478;2022-12-29T09:58:01;10.60;99.90
12853;DHT22;6495;51.808;7.478;2022-12-29T10:00:54;10.60;99.90
12853;DHT22;6495;51.808;7.478;2022-12-29T10:03:49;10.70;99.90
12853;DHT22;6495;51.808;7.478;2022-12-29T10:06:44;10.70;99.90
12853;DHT22;6495;51.808;7.478;2022-12-29T10:10:04;10.70;99.90
12853;DHT22;6495;51.808;7.478;2022-12-29T10:13:25;10.70;99.90
12853;DHT22;6495;51.808;7.478;2022-12-29T10:16:20;10.70;99.90
12853;DHT22;6495;51.808;7.478;2022-12-29T10:19:32;10.70;99.90
12853;DHT22;6495;51.808;7.478;2022-12-29T10:22:39;10.70;99.90
12853;DHT22;6495;51.808;7.478;2022-12-29T10:25:38;10.80;99.90
12853;DHT22;6495;51.808;7.478;2022-12-29T10:28:34;10.80;99.90
12853;DHT22;6495;51.808;7.478;2022-12-29T10:31:29;10.80;99.90
12853;DHT22;6495;51.808;7.478;2022-12-29T10:34:25;10.80;99.90
12853;DHT22;6495;51.808;7.478;2022-12-29T10:37:24;10.80;99.90
12853;DHT22;6495;51.808;7.478;2022-12-29T10:40:24;10.80;99.90
12853;DHT22;6495;51.808;7.478;2022-12-29T10:43:23;10.80;99.90
12853;DHT22;6495;51.808;7.478;2022-12-29T10:46:14;10.80;99.90
12853;DHT22;6495;51.808;7.478;2022-12-29T10:49:04;10.90;99.90
12853;DHT22;6495;51.808;7.478;2022-12-29T10:51:57;10.90;99.90
12853;DHT22;6495;51.808;7.478;2022-12-29T10:54:49;10.90;99.90
12853;DHT22;6495;51.808;7.478;2022-12-29T10:57:42;10.90;99.90
12853;DHT22;6495;51.808;7.478;2022-12-29T11:00:31;10.90;99.90
12853;DHT22;6495;51.808;7.478;2022-12-29T11:03:39;10.90;99.90
12853;DHT22;6495;51.808;7.478;2022-12-29T11:06:37;10.90;99.90
12853;DHT22;6495;51.808;7.478;2022-12-29T11:09:31;10.90;99.90
12853;DHT22;6495;51.808;7.478;2022-12-29T11:12:29;10.90;99.90
12853;DHT22;6495;51.808;7.478;2022-12-29T11:15:16;11.00;99.90
12853;DHT22;6495;51.808;7.478;2022-12-29T11:18:03;11.00;99.90
12853;DHT22;6495;51.808;7.478;2022-12-29T11:20:52;11.00;99.90
12853;DHT22;6495;51.808;7.478;2022-12-29T11:23:41;11.00;99.90
12853;DHT22;6495;51.808;7.478;2022-12-29T11:26:30;11.00;99.90
12853;DHT22;6495;51.808;7.478;2022-12-29T11:29:25;11.00;99.90
12853;DHT22;6495;51.808;7.478;2022-12-29T11:32:19;11.00;99.90
12853;DHT22;6495;51.808;7.478;2022-12-29T11:35:30;11.00;99.90
12853;DHT22;6495;51.808;7.478;2022-12-29T11:38:21;11.00;99.90
12853;DHT22;6495;51.808;7.478;2022-12-29T11:41:20;11.00;99.90
12853;DHT22;6495;51.808;7.478;2022-12-29T11:44:12;11.10;99.90
12853;DHT22;6495;51.808;7.478;2022-12-29T11:47:00;11.10;99.90
12853;DHT22;6495;51.808;7.478;2022-12-29T11:49:49;11.00;99.90
12853;DHT22;6495;51.808;7.478;2022-12-29T11:52:38;11.10;99.90
12853;DHT22;6495;51.808;7.478;2022-12-29T11:55:26;11.10;99.90
12853;DHT22;6495;51.808;7.478;2022-12-29T11:58:16;11.10;99.90
12853;DHT22;6495;51.808;7.478;2022-12-29T12:01:07;11.10;99.90
12853;DHT22;6495;51.808;7.478;2022-12-29T12:04:03;11.10;99.90
12853;DHT22;6495;51.808;7.478;2022-12-29T12:06:59;11.10;99.90
12853;DHT22;6495;51.808;7.478;2022-12-29T12:09:51;11.00;99.90
12853;DHT22;6495;51.808;7.478;2022-12-29T12:12:58;11.00;99.90
12853;DHT22;6495;51.808;7.478;2022-12-29T12:15:57;11.10;99.90
12853;DHT22;6495;51.808;7.478;2022-12-29T12:18:54;11.10;99.90
12853;DHT22;6495;51.808;7.478;2022-12-29T12:21:46;11.10;99.90
12853;DHT22;6495;51.808;7.478;2022-12-29T12:24:41;11.10;99.90
12853;DHT22;6495;51.808;7.478;2022-12-29T12:27:33;11.10;99.90
12853;DHT22;6495;51.808;7.478;2022-12-29T12:30:28;11.10;99.90
12853;DHT22;6495;51.808;7.478;2022-12-29T12:33:27;11.10;99.90
12853;DHT22;6495;51.808;7.478;2022-12-29T12:36:53;11.00;99.90
12853;DHT22;6495;51.808;7.478;2022-12-29T12:40:07;11.00;99.90
12853;DHT22;6495;51.808;7.478;2022-12-29T12:43:20;11.00;99.90
12853;DHT22;6495;51.808;7.478;2022-12-29T12:46:38;11.00;99.90
12853;DHT22;6495;51.808;7.478;2022-12-29T12:50:11;11.00;99.90
12853;DHT22;6495;51.808;7.478;2022-12-29T12:53:29;11.00;99.90
12853;DHT22;6495;51.808;7.478;2022-12-29T12:56:44;10.90;99.90
12853;DHT22;6495;51.808;7.478;2022-12-29T12:59:48;10.90;99.90
12853;DHT22;6495;51.808;7.478;2022-12-29T13:02:50;10.90;99.90
12853;DHT22;6495;51.808;7.478;2022-12-29T13:06:05;10.90;99.90
12853;DHT22;6495;51.808;7.478;2022-12-29T13:09:14;10.90;99.90
12853;DHT22;6495;51.808;7.478;2022-12-29T13:12:32;10.90;99.90
12853;DHT22;6495;51.808;7.478;2022-12-29T13:15:38;10.90;99.90
12853;DHT22;6495;51.808;7.478;2022-12-29T13:18:34;10.90;99.90
12853;DHT22;6495;51.808;7.478;2022-12-29T13:21:40;10.90;99.90
12853;DHT22;6495;51.808;7.478;2022-12-29T13:25:00;10.90;99.90
12853;DHT22;6495;51.808;7.478;2022-12-29T13:28:04;10.90;99.90
12853;DHT22;6495;51.808;7.478;2022-12-29T13:31:00;10.90;99.90
12853;DHT22;6495;51.808;7.478;2022-12-29T13:33:59;10.90;99.90
12853;DHT22;6495;51.808;7.478;2022-12-29T13:36:53;10.90;99.90
12853;DHT22;6495;51.808;7.478;2022-12-29T13:39:46;10.80;99.90
12853;DHT22;6495;51.808;7.478;2022-12-29T13:42:37;10.80;99.90
12853;DHT22;6495;51.808;7.478;2022-12-29T13:45:26;10.80;99.90
12853;DHT22;6495;51.808;7.478;2022-12-29T13:48:22;10.70;99.90
12853;DHT22;6495;51.808;7.478;2022-12-29T13:51:15;10.70;99.90
12853;DHT22;6495;51.808;7.478;2022-12-29T13:54:17;10.70;99.90
12853;DHT22;6495;51.808;7.478;2022-12-29T13:57:19;10.70;99.90
12853;DHT22;6495;51.808;7.478;2022-12-29T14:00:20;10.70;99.90
12853;DHT22;6495;51.808;7.478;2022-12-29T14:03:24;10.70;99.90
12853;DHT22;6495;51.808;7.478;2022-12-29T14:06:27;10.70;99.90
12853;DHT22;6495;51.808;7.478;2022-12-29T14:09:46;10.70;99.90
12853;DHT22;6495;51.808;7.478;2022-12-29T14:12:38;10.70;99.90
12853;DHT22;6495;51.808;7.478;2022-12-29T14:15:28;10.70;99.90
12853;DHT22;6495;51.808;7.478;2022-12-29T14:18:17;10.70;99.90
12853;DHT22;6495;51.808;7.478;2022-12-29T14:21:11;10.70;99.90
12853;DHT22;6495;51.808;7.478;2022-12-29T14:30:51;10.70;99.90
12853;DHT22;6495;51.808;7.478;2022-12-29T14:33:39;10.70;99.90
12853;DHT22;6495;51.808;7.478;2022-12-29T14:36:33;10.70;99.90
12853;DHT22;6495;51.808;7.478;2022-12-29T14:39:36;10.70;99.90
12853;DHT22;6495;51.808;7.478;2022-12-29T14:42:25;10.70;99.90
12853;DHT22;6495;51.808;7.478;2022-12-29T14:45:26;10.70;99.90
12853;DHT22;6495;51.808;7.478;2022-12-29T14:48:38;10.70;99.90
12853;DHT22;6495;51.808;7.478;2022-12-29T14:51:31;10.70;99.90
12853;DHT22;6495;51.808;7.478;2022-12-29T14:54:44;10.70;99.90
12853;DHT22;6495;51.808;7.478;2022-12-29T14:57:37;10.70;99.90
12853;DHT22;6495;51.808;7.478;2022-12-29T15:00:29;10.60;99.90
12853;DHT22;6495;51.808;7.478;2022-12-29T15:03:21;10.60;99.90
12853;DHT22;6495;51.808;7.478;2022-12-29T15:06:13;10.70;99.90
12853;DHT22;6495;51.808;7.478;2022-12-29T15:09:06;10.70;99.90
12853;DHT22;6495;51.808;7.478;2022-12-29T15:12:05;10.70;99.90
12853;DHT22;6495;51.808;7.478;2022-12-29T15:15:10;10.70;99.90
12853;DHT22;6495;51.808;7.478;2022-12-29T15:18:21;10.70;99.90
12853;DHT22;6495;51.808;7.478;2022-12-29T15:21:15;10.70;99.90
12853;DHT22;6495;51.808;7.478;2022-12-29T15:24:02;10.70;99.90
12853;DHT22;6495;51.808;7.478;2022-12-29T15:26:53;10.70;99.90
12853;DHT22;6495;51.808;7.478;2022-12-29T15:29:42;10.70;99.90
12853;DHT22;6495;51.808;7.478;2022-12-29T15:32:40;10.70;99.90
12853;DHT22;6495;51.808;7.478;2022-12-29T15:35:33;10.60;99.90
12853;DHT22;6495;51.808;7.478;2022-12-29T15:38:24;10.60;99.90
12853;DHT22;6495;51.808;7.478;2022-12-29T15:41:27;10.60;99.90
12853;DHT22;6495;51.808;7.478;2022-12-29T15:44:40;10.60;99.90
12853;DHT22;6495;51.808;7.478;2022-12-29T15:47:30;10.60;99.90
12853;DHT22;6495;51.808;7.478;2022-12-29T15:50:22;10.60;99.90
12853;DHT22;6495;51.808;7.478;2022-12-29T15:53:17;10.60;99.90
12853;DHT22;6495;51.808;7.478;2022-12-29T15:56:11;10.60;99.90
12853;DHT22;6495;51.808;7.478;2022-12-29T15:58:58;10.60;99.90
12853;DHT22;6495;51.808;7.478;2022-12-29T16:01:46;10.50;99.90
12853;DHT22;6495;51.808;7.478;2022-12-29T16:04:33;10.50;99.90
12853;DHT22;6495;51.808;7.478;2022-12-29T16:07:51;10.50;99.90
12853;DHT22;6495;51.808;7.478;2022-12-29T16:10:41;10.50;99.90
12853;DHT22;6495;51.808;7.478;2022-12-29T16:13:34;10.50;99.90
12853;DHT22;6495;51.808;7.478;2022-12-29T16:16:27;10.50;99.90
12853;DHT22;6495;51.808;7.478;2022-12-29T16:19:21;10.50;99.90
12853;DHT22;6495;51.808;7.478;2022-12-29T16:22:19;10.40;99.90
12853;DHT22;6495;51.808;7.478;2022-12-29T16:25:17;10.40;99.90
12853;DHT22;6495;51.808;7.478;2022-12-29T16:28:17;10.40;99.90
12853;DHT22;6495;51.808;7.478;2022-12-29T16:31:18;10.30;99.90
12853;DHT22;6495;51.808;7.478;2022-12-29T16:34:21;10.30;99.90
12853;DHT22;6495;51.808;7.478;2022-12-29T16:37:28;10.30;99.90
12853;DHT22;6495;51.808;7.478;2022-12-29T16:40:28;10.20;99.90
12853;DHT22;6495;51.808;7.478;2022-12-29T16:43:21;10.20;99.90
12853;DHT22;6495;51.808;7.478;2022-12-29T16:46:27;10.20;99.90
12853;DHT22;6495;51.808;7.478;2022-12-29T16:49:17;10.10;99.90
12853;DHT22;6495;51.808;7.478;2022-12-29T16:52:12;10.10;99.90
12853;DHT22;6495;51.808;7.478;2022-12-29T16:55:04;10.10;99.90
12853;DHT22;6495;51.808;7.478;2022-12-29T16:57:53;10.10;99.90
12853;DHT22;6495;51.808;7.478;2022-12-29T17:00:45;10.10;99.90
12853;DHT22;6495;51.808;7.478;2022-12-29T17:03:37;10.10;99.90
12853;DHT22;6495;51.808;7.478;2022-12-29T17:06:26;10.10;99.90
12853;DHT22;6495;51.808;7.478;2022-12-29T17:09:18;10.10;99.90
12853;DHT22;6495;51.808;7.478;2022-12-29T17:12:06;10.10;99.90
12853;DHT22;6495;51.808;7.478;2022-12-29T17:14:59;10.10;99.90
12853;DHT22;6495;51.808;7.478;2022-12-29T17:17:48;10.10;99.90
12853;DHT22;6495;51.808;7.478;2022-12-29T17:20:37;10.10;99.90
12853;DHT22;6495;51.808;7.478;2022-12-29T17:23:24;10.00;99.90
12853;DHT22;6495;51.808;7.478;2022-12-29T17:26:12;10.00;99.90
12853;DHT22;6495;51.808;7.478;2022-12-29T17:28:58;9.90;99.90
12853;DHT22;6495;51.808;7.478;2022-12-29T17:31:45;9.90;99.90
12853;DHT22;6495;51.808;7.478;2022-12-29T17:34:32;9.90;99.90
12853;DHT22;6495;51.808;7.478;2022-12-29T17:37:39;9.80;99.90
12853;DHT22;6495;51.808;7.478;2022-12-29T17:40:27;9.80;99.90
12853;DHT22;6495;51.808;7.478;2022-12-29T17:43:15;9.70;99.90
12853;DHT22;6495;51.808;7.478;2022-12-29T17:46:05;9.70;99.90
12853;DHT22;6495;51.808;7.478;2022-12-29T17:48:53;9.70;99.90
12853;DHT22;6495;51.808;7.478;2022-12-29T17:51:41;9.60;99.90
12853;DHT22;6495;51.808;7.478;2022-12-29T17:54:31;9.60;99.90
12853;DHT22;6495;51.808;7.478;2022-12-29T17:57:19;9.50;99.90
12853;DHT22;6495;51.808;7.478;2022-12-29T18:00:13;9.50;99.90
12853;DHT22;6495;51.808;7.478;2022-12-29T18:03:01;9.50;99.90
12853;DHT22;6495;51.808;7.478;2022-12-29T18:05:47;9.40;99.90
12853;DHT22;6495;51.808;7.478;2022-12-29T18:08:35;9.40;99.90
12853;DHT22;6495;51.808;7.478;2022-12-29T18:11:25;9.40;99.90
12853;DHT22;6495;51.808;7.478;2022-12-29T18:14:13;9.30;99.90
12853;DHT22;6495;51.808;7.478;2022-12-29T18:17:03;9.30;99.90
12853;DHT22;6495;51.808;7.478;2022-12-29T18:19:57;9.30;99.90
12853;DHT22;6495;51.808;7.478;2022-12-29T18:22:44;9.20;99.90
12853;DHT22;6495;51.808;7.478;2022-12-29T18:25:38;9.20;99.90
12853;DHT22;6495;51.808;7.478;2022-12-29T18:28:29;9.20;99.90
12853;DHT22;6495;51.808;7.478;2022-12-29T18:31:18;9.20;99.90
12853;DHT22;6495;51.808;7.478;2022-12-29T18:34:12;9.10;99.90
12853;DHT22;6495;51.808;7.478;2022-12-29T18:37:00;9.10;99.90
12853;DHT22;6495;51.808;7.478;2022-12-29T18:39:47;9.10;99.90